This is the latest recevied weather packets stored in our database for station/object VA5EVR-13. If no packets are shown the sender has not sent any weather packets the latest 10 day(s).
| Time | Temp. | Humidity | Pressure | Rain* | Wind** | Luminosity | Snow |
|---|---|---|---|---|---|---|---|
| 1777827612 | 18.33° C | 43% | 88.8 hPa | 0 mm | - | - | - |
| 1777827011 | 18.33° C | 43% | 88.8 hPa | 0 mm | - | - | - |
| 1777826411 | 17.78° C | 45% | 88.8 hPa | 0 mm | - | - | - |
| 1777825812 | 17.22° C | 45% | 88.8 hPa | 0 mm | - | - | - |
| 1777824612 | 16.67° C | 48% | 88.8 hPa | 0 mm | - | - | - |
| 1777824012 | 16.11° C | 51% | 88.8 hPa | 0 mm | - | - | - |
| 1777823413 | 15.56° C | 55% | 88.8 hPa | 0 mm | - | - | - |
| 1777822811 | 15.56° C | 56% | 88.8 hPa | 0 mm | - | - | - |
| 1777822212 | 15° C | 59% | 88.8 hPa | 0 mm | - | - | - |
| 1777821611 | 15° C | 58% | 88.8 hPa | 0 mm | - | - | - |
| 1777821011 | 15° C | 57% | 88.8 hPa | 0 mm | - | - | - |
| 1777820412 | 13.89° C | 61% | 88.8 hPa | 0 mm | - | - | - |
| 1777819812 | 13.89° C | 61% | 88.8 hPa | 0 mm | - | - | - |
| 1777819211 | 13.89° C | 61% | 88.8 hPa | 0 mm | - | - | - |
| 1777818611 | 13.89° C | 62% | 88.8 hPa | 0 mm | - | - | - |
| 1777818011 | 13.89° C | 61% | 88.8 hPa | 0 mm | - | - | - |
| 1777817412 | 13.89° C | 61% | 88.8 hPa | 0 mm | - | - | - |
| 1777816811 | 13.89° C | 60% | 88.8 hPa | 0 mm | - | - | - |
| 1777816211 | 13.33° C | 60% | 88.8 hPa | 0 mm | - | - | - |
| 1777815612 | 12.78° C | 60% | 88.8 hPa | 0 mm | - | - | - |
| 1777815012 | 12.78° C | 60% | 88.8 hPa | 0 mm | - | - | - |
| 1777814412 | 12.78° C | 60% | 88.8 hPa | 0 mm | - | - | - |
| 1777813812 | 12.22° C | 60% | 88.8 hPa | 0 mm | - | - | - |
| 1777813211 | 11.67° C | 60% | 88.8 hPa | 0 mm | - | - | - |
| 1777812611 | 10.56° C | 60% | 88.8 hPa | 0 mm | - | - | - |
* Rain latest hour (hover to see other rain measurements)
** Current wind speed in m/s (hover to see current wind gust speed)